Time;durP1;ratioP1;P1;durP2;ratioP2;P2;SDS_P1;SDS_P2;PMS_P1;PMS_P2;Temp;Humidity;BMP_temperature;BMP_pressure;BME280_temperature;BME280_humidity;BME280_pressure;Samples;Min_cycle;Max_cycle;Signal;HPM_P1;HPM_P2
2022/12/15 00:40:03;;;;;;;32.15;23.25;;;-4.30;99.90;;;;;;4960082;28;88739;-30
2022/12/15 00:42:29;;;;;;;36.42;24.50;;;-4.30;99.90;;;;;;4959473;28;89482;-30
2022/12/15 00:44:55;;;;;;;32.08;23.02;;;-4.20;99.90;;;;;;4959699;28;89545;-33
2022/12/15 00:47:21;;;;;;;29.42;21.77;;;-4.20;99.90;;;;;;4958513;28;91057;-30
2022/12/15 01:20:17;;;;;;;33.22;23.63;;;-4.30;99.90;;;;;;4959691;28;90254;-34
2022/12/15 01:22:49;;;;;;;28.58;23.00;;;-4.30;99.90;;;;;;4959099;28;88579;-34
2022/12/15 01:25:17;;;;;;;29.73;21.30;;;-4.30;99.90;;;;;;4959107;28;89891;-31
2022/12/15 01:27:43;;;;;;;30.77;21.02;;;-4.30;99.90;;;;;;4958102;28;92534;-30
2022/12/15 01:30:10;;;;;;;34.05;22.98;;;-4.40;99.90;;;;;;4958791;28;90098;-30
2022/12/15 01:32:36;;;;;;;33.00;19.77;;;-4.40;99.90;;;;;;4959205;28;89283;-31
2022/12/15 01:35:03;;;;;;;36.67;24.02;;;-4.40;99.90;;;;;;4958922;28;89947;-33
2022/12/15 01:37:29;;;;;;;31.05;22.30;;;-4.40;99.90;;;;;;4958368;28;90224;-30
2022/12/15 01:42:39;;;;;;;33.45;20.23;;;-4.50;99.90;;;;;;4958050;28;87744;-31
2022/12/15 01:45:30;;;;;;;30.52;22.20;;;-4.40;99.90;;;;;;4959871;28;90580;-30
2022/12/15 01:47:57;;;;;;;34.25;21.85;;;-4.50;99.90;;;;;;4958842;28;89586;-31
2022/12/15 01:50:24;;;;;;;32.05;21.48;;;-4.50;99.90;;;;;;4959289;28;89739;-32
2022/12/15 01:52:53;;;;;;;40.67;18.33;;;-4.50;99.90;;;;;;4957162;28;90393;-30
2022/12/15 01:55:19;;;;;;;28.58;20.35;;;-4.50;99.90;;;;;;4957737;28;90172;-31
2022/12/15 01:57:47;;;;;;;30.60;21.83;;;-4.50;99.90;;;;;;4958566;28;89225;-29
2022/12/15 02:00:13;;;;;;;29.65;23.08;;;-4.50;99.90;;;;;;4958791;28;89698;-34
2022/12/15 02:02:39;;;;;;;25.83;21.67;;;-4.50;99.90;;;;;;4959084;28;89996;-33
2022/12/15 02:05:06;;;;;;;35.22;22.95;;;-4.60;99.90;;;;;;4958588;28;89253;-31
2022/12/15 02:07:32;;;;;;;27.13;20.52;;;-4.60;99.90;;;;;;4957111;28;91648;-33
2022/12/15 02:10:00;;;;;;;27.13;20.92;;;-4.60;99.90;;;;;;4958773;28;90020;-32
2022/12/15 02:12:51;;;;;;;30.90;22.15;;;-4.60;99.90;;;;;;4958405;28;88180;-34
2022/12/15 02:15:26;;;;;;;28.40;19.83;;;-4.60;99.90;;;;;;4958258;28;90168;-29
2022/12/15 02:18:29;;;;;;;29.58;21.58;;;-4.60;99.90;;;;;;4957623;28;90494;-30
2022/12/15 02:21:16;;;;;;;32.83;21.80;;;-4.60;99.90;;;;;;4958550;28;90254;-32
2022/12/15 02:24:13;;;;;;;27.38;22.73;;;-4.70;99.90;;;;;;4958783;28;89076;-30
2022/12/15 02:27:09;;;;;;;29.30;21.67;;;-4.70;99.90;;;;;;4956465;28;90278;-30
2022/12/15 02:30:15;;;;;;;29.20;21.85;;;-4.70;99.90;;;;;;4958120;28;90145;-31
2022/12/15 02:33:06;;;;;;;28.60;20.40;;;-4.70;99.90;;;;;;4956233;28;90016;-30
2022/12/15 02:35:54;;;;;;;31.73;22.02;;;-4.70;99.90;;;;;;4958403;28;89746;-30
2022/12/15 02:38:34;;;;;;;28.60;21.33;;;-4.70;99.90;;;;;;4958384;28;92261;-29
2022/12/15 02:41:02;;;;;;;32.95;22.25;;;-4.70;99.90;;;;;;4957739;28;90286;-31
2022/12/15 02:43:30;;;;;;;25.10;18.15;;;-4.70;99.90;;;;;;4958381;28;90737;-31
2022/12/15 02:46:15;;;;;;;26.52;20.52;;;-4.70;99.90;;;;;;4957470;28;90083;-31
2022/12/15 02:49:26;;;;;;;35.97;21.88;;;-4.80;99.90;;;;;;4958501;28;89432;-30
2022/12/15 02:52:10;;;;;;;29.50;19.73;;;-4.70;99.90;;;;;;4947061;28;89946;-34
2022/12/15 02:54:41;;;;;;;31.63;21.05;;;-4.70;99.90;;;;;;4955566;28;90940;-32
2022/12/15 02:57:36;;;;;;;33.88;21.15;;;-4.70;99.90;;;;;;4957788;28;88829;-34
2022/12/15 03:00:08;;;;;;;29.23;20.02;;;-4.70;99.90;;;;;;4958428;28;90374;-30
2022/12/15 03:02:38;;;;;;;32.25;20.90;;;-4.70;99.90;;;;;;4957345;28;89650;-33
2022/12/15 03:05:05;;;;;;;30.73;21.67;;;-4.70;99.90;;;;;;4957690;28;89991;-30
2022/12/15 03:07:30;;;;;;;34.08;21.42;;;-4.70;99.90;;;;;;4961566;28;89423;-32
2022/12/15 03:10:03;;;;;;;25.38;19.52;;;-4.70;99.90;;;;;;4961085;28;90449;-32
2022/12/15 03:12:28;;;;;;;29.30;19.08;;;-4.70;99.90;;;;;;4961188;28;89885;-30
2022/12/15 03:14:54;;;;;;;29.40;19.90;;;-4.60;99.90;;;;;;4960174;28;89660;-30
2022/12/15 03:17:20;;;;;;;27.48;19.95;;;-4.60;99.90;;;;;;4961390;28;88040;-30
2022/12/15 03:19:45;;;;;;;29.98;21.42;;;-4.60;99.90;;;;;;4960880;28;90754;-32
2022/12/15 03:22:11;;;;;;;28.10;20.63;;;-4.60;99.90;;;;;;4960804;28;89993;-29
2022/12/15 03:24:37;;;;;;;26.48;19.45;;;-4.60;99.90;;;;;;4961326;28;88766;-30
2022/12/15 03:27:03;;;;;;;25.40;19.25;;;-4.60;99.90;;;;;;4958791;28;88929;-32
2022/12/15 03:29:29;;;;;;;28.08;18.70;;;-4.60;99.90;;;;;;4960799;28;90673;-34
2022/12/15 03:31:54;;;;;;;27.13;20.35;;;-4.50;99.90;;;;;;4960389;28;89631;-31
2022/12/15 03:34:20;;;;;;;27.92;19.13;;;-4.50;99.90;;;;;;4960599;28;90444;-33
2022/12/15 03:36:46;;;;;;;27.85;20.35;;;-4.50;99.90;;;;;;4960372;28;89897;-30
2022/12/15 03:39:12;;;;;;;27.50;21.27;;;-4.50;99.90;;;;;;4960620;28;90389;-31
2022/12/15 03:41:37;;;;;;;29.48;21.40;;;-4.50;99.90;;;;;;4960909;28;89523;-33
2022/12/15 03:44:03;;;;;;;25.20;19.10;;;-4.50;99.90;;;;;;4960612;28;89389;-32
2022/12/15 03:46:29;;;;;;;26.90;19.45;;;-4.50;99.90;;;;;;4961223;28;89931;-30
2022/12/15 03:48:54;;;;;;;28.77;20.08;;;-4.50;99.90;;;;;;4960787;28;90163;-31
2022/12/15 03:51:20;;;;;;;23.90;19.73;;;-4.50;99.90;;;;;;4960747;28;89820;-30
2022/12/15 03:53:48;;;;;;;26.02;18.77;;;-4.60;99.90;;;;;;4961074;28;88526;-31
2022/12/15 03:56:14;;;;;;;25.33;17.97;;;-4.60;99.90;;;;;;4960570;28;89035;-32
2022/12/15 03:58:39;;;;;;;25.73;19.55;;;-4.60;99.90;;;;;;4960414;28;91072;-33
2022/12/15 04:01:20;;;;;;;29.50;20.55;;;-4.60;99.90;;;;;;4960167;28;90403;-31
2022/12/15 04:03:46;;;;;;;25.80;20.02;;;-4.60;99.90;;;;;;4960603;28;89578;-31
2022/12/15 04:06:11;;;;;;;22.27;17.58;;;-4.60;99.90;;;;;;4959762;28;89096;-31
2022/12/15 04:08:37;;;;;;;23.92;17.35;;;-4.60;99.90;;;;;;4960322;28;90275;-34
2022/12/15 04:11:03;;;;;;;29.23;21.48;;;-4.60;99.90;;;;;;4960348;28;89561;-33
2022/12/15 04:13:28;;;;;;;27.30;18.77;;;-4.60;99.90;;;;;;4960151;28;89431;-31
2022/12/15 04:15:54;;;;;;;27.42;18.05;;;-4.60;99.90;;;;;;4960542;28;89614;-30
2022/12/15 04:18:20;;;;;;;24.63;18.27;;;-4.50;99.90;;;;;;4959392;28;90109;-29
2022/12/15 04:20:45;;;;;;;31.25;20.70;;;-4.50;99.90;;;;;;4960133;28;90360;-31
2022/12/15 04:23:11;;;;;;;22.95;20.35;;;-4.50;99.90;;;;;;4960134;28;90870;-31
2022/12/15 05:34:34;;;;;;;24.13;18.50;;;-3.50;99.90;;;;;;4952905;28;92404;-32
2022/12/15 05:37:01;;;;;;;25.48;18.52;;;-3.60;99.90;;;;;;4958716;28;89840;-33
2022/12/15 05:39:27;;;;;;;22.17;16.95;;;-3.60;99.90;;;;;;4959324;28;89469;-31
2022/12/15 05:41:54;;;;;;;23.98;16.60;;;-3.60;99.90;;;;;;4958879;28;89591;-32
2022/12/15 05:44:20;;;;;;;28.17;19.00;;;-3.60;99.90;;;;;;4958159;28;89973;-33
2022/12/15 05:46:46;;;;;;;26.35;20.73;;;-3.60;99.90;;;;;;4958476;28;90663;-31
2022/12/15 05:49:14;;;;;;;21.45;16.05;;;-3.60;99.90;;;;;;4958267;28;90770;-32
2022/12/15 05:51:42;;;;;;;24.27;18.48;;;-3.70;99.90;;;;;;4958319;28;87992;-32
2022/12/15 05:54:09;;;;;;;22.17;17.17;;;-3.80;99.90;;;;;;4958722;28;89785;-34
2022/12/15 05:56:34;;;;;;;23.02;19.27;;;-3.80;99.90;;;;;;4959239;28;90047;-31
2022/12/15 05:59:00;;;;;;;24.10;18.52;;;-3.90;99.90;;;;;;4958860;28;89553;-32
2022/12/15 06:01:27;;;;;;;26.52;18.52;;;-3.90;99.90;;;;;;4958710;28;88413;-32
2022/12/15 06:03:52;;;;;;;25.27;19.10;;;-4.00;99.90;;;;;;4958743;28;89594;-31
2022/12/15 06:06:19;;;;;;;24.48;18.50;;;-4.00;99.90;;;;;;4957867;28;89248;-32
2022/12/15 06:08:44;;;;;;;28.73;19.27;;;-4.10;99.90;;;;;;4958670;28;89674;-32
2022/12/15 06:11:15;;;;;;;27.13;20.25;;;-4.10;99.90;;;;;;4958126;28;89879;-30
2022/12/15 06:13:41;;;;;;;25.05;18.73;;;-4.10;99.90;;;;;;4958327;28;91204;-29
2022/12/15 06:16:11;;;;;;;25.13;20.13;;;-4.10;99.90;;;;;;4958243;28;89578;-35
2022/12/15 06:18:40;;;;;;;26.35;18.58;;;-4.10;99.90;;;;;;4958276;28;90032;-31
2022/12/15 06:21:17;;;;;;;25.45;19.70;;;-4.20;99.90;;;;;;4958941;28;88521;-32
2022/12/15 06:23:43;;;;;;;29.40;19.60;;;-4.20;99.90;;;;;;4958654;28;90477;-33
2022/12/15 06:26:13;;;;;;;21.98;16.55;;;-4.20;99.90;;;;;;4957591;28;91053;-30
2022/12/15 06:28:39;;;;;;;20.92;18.05;;;-4.20;99.90;;;;;;4958098;28;89385;-32
2022/12/15 06:31:07;;;;;;;23.30;19.30;;;-4.20;99.90;;;;;;4958446;28;88877;-35
2022/12/15 06:33:33;;;;;;;26.25;16.58;;;-4.20;99.90;;;;;;4958672;28;89197;-30
2022/12/15 06:36:04;;;;;;;28.60;19.20;;;-4.20;99.90;;;;;;4956210;28;89479;-33
2022/12/15 06:38:30;;;;;;;23.55;17.35;;;-4.10;99.90;;;;;;4958758;28;92107;-30
2022/12/15 06:40:56;;;;;;;29.63;18.98;;;-4.00;99.90;;;;;;4959859;28;88410;-33
2022/12/15 06:43:22;;;;;;;19.63;16.98;;;-4.00;99.90;;;;;;4962065;28;90183;-34
2022/12/15 06:45:48;;;;;;;25.92;18.10;;;-4.00;99.90;;;;;;4961993;28;90277;-31
2022/12/15 06:48:14;;;;;;;22.55;16.90;;;-4.00;99.90;;;;;;4961754;28;88215;-30
2022/12/15 06:50:40;;;;;;;27.92;17.45;;;-4.00;99.90;;;;;;4961922;28;89358;-30
2022/12/15 06:53:06;;;;;;;25.80;18.65;;;-4.00;99.90;;;;;;4961853;28;89602;-31
2022/12/15 06:55:32;;;;;;;26.52;18.65;;;-4.00;99.90;;;;;;4961412;28;89904;-31
2022/12/15 06:57:57;;;;;;;29.92;20.45;;;-3.90;99.90;;;;;;4961817;28;89613;-31
2022/12/15 07:00:23;;;;;;;22.95;17.60;;;-3.90;99.90;;;;;;4961161;28;89985;-31
2022/12/15 07:02:49;;;;;;;28.70;17.42;;;-3.90;99.90;;;;;;4960018;28;90549;-32
2022/12/15 07:05:14;;;;;;;21.65;16.35;;;-3.90;99.90;;;;;;4961386;28;89390;-31
2022/12/15 07:07:40;;;;;;;26.60;19.50;;;-3.90;99.90;;;;;;4961613;28;89845;-31
2022/12/15 07:10:06;;;;;;;39.08;17.42;;;-3.90;99.90;;;;;;4961301;28;88455;-29
2022/12/15 07:12:31;;;;;;;20.45;16.60;;;-3.90;99.90;;;;;;4961512;28;90136;-30
2022/12/15 07:14:57;;;;;;;19.90;15.48;;;-3.90;99.90;;;;;;4960838;28;89718;-30
2022/12/15 07:17:23;;;;;;;23.00;16.80;;;-3.90;99.90;;;;;;4962561;28;89644;-33
2022/12/15 07:19:48;;;;;;;24.75;19.67;;;-3.90;99.90;;;;;;4971590;28;89928;-30
2022/12/15 07:22:14;;;;;;;27.27;16.65;;;-3.90;99.90;;;;;;4966740;28;90231;-30
2022/12/15 07:24:40;;;;;;;20.65;17.00;;;-3.80;99.90;;;;;;4971971;28;90431;-34
2022/12/15 07:27:05;;;;;;;23.50;15.95;;;-3.80;99.90;;;;;;4967270;28;90637;-31
2022/12/15 07:29:31;;;;;;;24.90;19.30;;;-3.80;99.90;;;;;;4972266;28;89477;-33
2022/12/15 07:31:57;;;;;;;23.55;18.00;;;-3.80;99.90;;;;;;4969000;28;90197;-30
2022/12/15 07:34:22;;;;;;;22.88;15.90;;;-3.70;99.90;;;;;;4969727;28;88977;-31
2022/12/15 07:36:48;;;;;;;25.10;17.58;;;-3.70;99.90;;;;;;4970946;28;90142;-32
2022/12/15 07:39:14;;;;;;;19.55;16.33;;;-3.60;99.90;;;;;;4968082;28;88868;-32
2022/12/15 07:41:40;;;;;;;22.30;16.17;;;-3.50;99.90;;;;;;4972676;28;89795;-34
2022/12/15 07:44:06;;;;;;;22.65;17.02;;;-3.50;99.90;;;;;;4967732;28;88458;-30
2022/12/15 07:46:32;;;;;;;20.85;17.92;;;-3.40;99.90;;;;;;4971496;28;89587;-30
2022/12/15 07:48:58;;;;;;;24.90;18.23;;;-3.40;99.90;;;;;;4972611;28;89356;-32
2022/12/15 07:51:23;;;;;;;24.55;19.63;;;-3.40;99.90;;;;;;4969695;28;90406;-33
2022/12/15 07:53:49;;;;;;;21.38;16.80;;;-3.30;99.90;;;;;;4969719;28;89517;-30
2022/12/15 07:56:16;;;;;;;23.77;20.13;;;-3.30;99.90;;;;;;4967434;28;89496;-32
2022/12/15 07:58:42;;;;;;;21.23;15.77;;;-3.30;99.90;;;;;;4968281;28;87987;-31
2022/12/15 08:01:11;;;;;;;28.40;17.35;;;-3.20;99.90;;;;;;4972240;28;90932;-31
2022/12/15 08:03:37;;;;;;;19.88;17.23;;;-3.30;99.90;;;;;;4972858;28;89312;-32
2022/12/15 08:06:11;;;;;;;25.88;18.48;;;-3.30;99.90;;;;;;4971931;28;89412;-35
2022/12/15 08:08:38;;;;;;;24.75;19.73;;;-3.30;99.90;;;;;;4971301;28;87687;-30
2022/12/15 08:11:09;;;;;;;24.40;16.42;;;-3.30;99.90;;;;;;4961860;28;90116;-32
2022/12/15 08:13:36;;;;;;;23.65;18.38;;;-3.30;99.90;;;;;;4971710;28;90836;-30
2022/12/15 08:16:01;;;;;;;22.80;18.75;;;-3.30;99.90;;;;;;4986092;28;90784;-30
2022/12/15 08:18:28;;;;;;;23.45;17.83;;;-3.30;99.90;;;;;;4979948;28;87752;-31
2022/12/15 08:20:53;;;;;;;25.85;19.60;;;-3.30;99.90;;;;;;4974311;28;90818;-30
2022/12/15 08:23:19;;;;;;;24.65;17.23;;;-3.30;99.90;;;;;;4964893;28;89911;-34
2022/12/15 08:25:45;;;;;;;22.83;16.88;;;-3.20;99.90;;;;;;4960493;28;89291;-31
2022/12/15 08:28:10;;;;;;;27.38;18.80;;;-3.20;99.90;;;;;;4962922;28;90466;-32
2022/12/15 08:30:36;;;;;;;27.85;17.17;;;-3.20;99.90;;;;;;4960680;28;90241;-31
2022/12/15 08:33:03;;;;;;;26.08;17.60;;;-3.20;99.90;;;;;;4961273;28;89400;-29
2022/12/15 08:35:29;;;;;;;30.35;20.30;;;-3.20;99.90;;;;;;4963855;28;89263;-32
2022/12/15 08:37:54;;;;;;;27.90;18.98;;;-3.10;99.90;;;;;;4961678;28;90067;-34
2022/12/15 08:40:20;;;;;;;24.33;19.95;;;-3.10;99.90;;;;;;4960144;28;90280;-31
2022/12/15 08:42:46;;;;;;;28.38;20.20;;;-3.10;99.90;;;;;;4959512;28;89074;-33
2022/12/15 08:45:11;;;;;;;27.13;20.63;;;-3.00;99.90;;;;;;4960212;28;89508;-29
2022/12/15 08:47:38;;;;;;;24.45;16.98;;;-2.90;99.90;;;;;;4966197;28;89041;-30
2022/12/15 08:50:06;;;;;;;24.08;18.23;;;-2.90;99.90;;;;;;4962950;28;90276;-34
2022/12/15 08:52:32;;;;;;;28.58;20.25;;;-2.80;99.90;;;;;;4966339;28;89501;-32
2022/12/15 08:54:58;;;;;;;30.35;21.60;;;-2.80;99.90;;;;;;4962272;28;90307;-32
2022/12/15 08:57:24;;;;;;;39.40;21.35;;;-2.70;99.90;;;;;;4964304;28;88485;-34
2022/12/15 08:59:49;;;;;;;31.40;22.67;;;-2.70;99.90;;;;;;4965236;28;89968;-30
2022/12/15 09:02:15;;;;;;;22.10;19.77;;;-2.60;99.90;;;;;;4962058;28;90612;-33
2022/12/15 09:04:40;;;;;;;28.92;19.85;;;-2.60;99.90;;;;;;4960408;28;90986;-33
2022/12/15 09:07:06;;;;;;;25.10;19.05;;;-2.50;99.90;;;;;;4959318;28;89535;-32
2022/12/15 09:09:32;;;;;;;26.30;20.08;;;-2.50;99.90;;;;;;4959960;28;90597;-30
2022/12/15 09:11:57;;;;;;;26.10;20.92;;;-2.40;99.90;;;;;;4959032;28;91431;-32
2022/12/15 09:14:23;;;;;;;27.15;21.23;;;-2.40;99.90;;;;;;4959398;28;89526;-33
2022/12/15 09:16:48;;;;;;;30.20;22.85;;;-2.20;99.90;;;;;;4959792;28;88611;-31
2022/12/15 09:19:14;;;;;;;29.00;23.58;;;-2.10;99.90;;;;;;4959931;28;90359;-32
2022/12/15 09:21:43;;;;;;;25.92;21.98;;;-2.00;99.90;;;;;;4954311;28;90776;-34
2022/12/15 09:24:12;;;;;;;26.02;21.58;;;-1.80;99.90;;;;;;4949971;28;89321;-30
2022/12/15 09:26:37;;;;;;;31.83;20.73;;;-1.70;99.90;;;;;;4989789;22;91250;-31
2022/12/15 09:29:03;;;;;;;24.83;21.60;;;-1.50;99.90;;;;;;4959092;28;90076;-32
2022/12/15 09:31:35;;;;;;;24.00;20.17;;;-1.50;99.90;;;;;;4959616;28;89981;-32
2022/12/15 09:34:01;;;;;;;20.90;18.70;;;-1.40;99.90;;;;;;4959770;28;89503;-31
2022/12/15 09:36:28;;;;;;;29.02;21.98;;;-1.30;99.90;;;;;;4959586;28;89101;-33
2022/12/15 09:38:54;;;;;;;20.60;18.50;;;-1.30;99.90;;;;;;4959271;28;90082;-32
2022/12/15 09:41:27;;;;;;;28.65;19.73;;;-1.30;99.90;;;;;;4959906;28;89652;-30
2022/12/15 09:44:00;;;;;;;23.20;18.75;;;-1.20;99.90;;;;;;4959700;28;88932;-31
2022/12/15 09:46:32;;;;;;;23.70;20.80;;;-1.10;99.90;;;;;;4959823;28;89707;-30
2022/12/15 09:49:02;;;;;;;23.63;17.70;;;-1.10;99.90;;;;;;4959400;28;90689;-32
2022/12/15 09:51:47;;;;;;;24.70;19.00;;;-1.10;99.90;;;;;;4958743;28;91138;-29
2022/12/15 09:54:13;;;;;;;24.25;21.30;;;-1.10;99.90;;;;;;4959228;28;91847;-29
2022/12/15 09:56:49;;;;;;;32.42;19.98;;;-1.10;99.90;;;;;;4958558;28;90256;-30
2022/12/15 09:59:32;;;;;;;26.42;21.48;;;-1.00;99.90;;;;;;4957881;28;90297;-32
2022/12/15 10:02:21;;;;;;;27.73;20.30;;;-0.90;99.90;;;;;;4958868;28;90052;-30
2022/12/15 10:05:05;;;;;;;22.70;18.33;;;-1.00;99.90;;;;;;4958614;28;90158;-32
2022/12/15 10:07:38;;;;;;;24.20;19.58;;;-0.90;99.90;;;;;;4958810;28;88431;-32
2022/12/15 10:10:22;;;;;;;21.80;18.50;;;-0.90;99.90;;;;;;4958941;28;90649;-30
2022/12/15 10:12:53;;;;;;;24.30;21.70;;;-0.80;99.90;;;;;;4959126;28;89829;-33
2022/12/15 10:15:27;;;;;;;22.15;19.75;;;-0.80;99.90;;;;;;4958310;28;92608;-33
2022/12/15 10:18:10;;;;;;;30.17;23.17;;;-0.70;99.90;;;;;;4958665;28;89033;-32
2022/12/15 10:20:36;;;;;;;22.33;19.20;;;-0.70;99.90;;;;;;4958588;28;89956;-31
2022/12/15 10:23:11;;;;;;;26.08;20.38;;;-0.60;99.90;;;;;;4958950;28;90449;-32
2022/12/15 10:25:37;;;;;;;31.75;21.50;;;-0.60;99.90;;;;;;4958440;28;89504;-31
2022/12/15 10:28:30;;;;;;;29.73;21.00;;;-0.50;99.90;;;;;;4959468;28;89044;-31
2022/12/15 10:31:40;;;;;;;26.52;19.27;;;-0.30;99.90;;;;;;4958524;28;90650;-31
2022/12/15 10:34:17;;;;;;;22.10;17.50;;;-0.20;99.90;;;;;;4947828;28;91567;-32
2022/12/15 10:36:49;;;;;;;29.08;19.25;;;-0.10;99.90;;;;;;4957370;28;88912;-32
2022/12/15 10:39:15;;;;;;;24.60;19.75;;;-0.10;99.90;;;;;;4962147;28;89180;-33
2022/12/15 10:41:40;;;;;;;22.33;19.20;;;0.00;99.90;;;;;;4967552;28;90357;-33
2022/12/15 10:44:23;;;;;;;21.90;19.45;;;0.00;99.90;;;;;;4963239;28;89800;-30
2022/12/15 10:46:54;;;;;;;21.85;18.17;;;0.10;99.90;;;;;;4959862;28;90263;-35
2022/12/15 10:49:22;;;;;;;23.25;19.80;;;0.20;99.90;;;;;;4959418;28;89592;-33
2022/12/15 10:51:59;;;;;;;24.85;18.23;;;0.10;99.90;;;;;;4974470;28;91012;-32
2022/12/15 10:54:33;;;;;;;31.10;20.60;;;0.10;99.90;;;;;;4961300;28;89718;-32
2022/12/15 10:57:02;;;;;;;24.65;20.25;;;0.00;99.90;;;;;;4978281;28;90188;-32
2022/12/15 10:59:35;;;;;;;25.02;20.10;;;0.00;99.90;;;;;;4973927;28;87729;-32
2022/12/15 11:02:19;;;;;;;28.88;22.23;;;-0.10;99.90;;;;;;4986244;28;90055;-33
2022/12/15 11:05:14;;;;;;;26.73;19.10;;;-0.20;99.90;;;;;;4969861;28;89804;-31
2022/12/15 11:07:42;;;;;;;29.83;21.85;;;-0.30;99.90;;;;;;4966928;28;89550;-31
2022/12/15 11:10:19;;;;;;;31.95;19.17;;;-0.20;99.90;;;;;;4967983;28;88900;-31
2022/12/15 11:13:11;;;;;;;31.63;18.67;;;-0.20;99.90;;;;;;4979214;28;90383;-30
2022/12/15 11:15:40;;;;;;;30.08;20.90;;;-0.10;99.90;;;;;;4970538;28;89467;-30
2022/12/15 11:18:43;;;;;;;22.30;19.92;;;-0.20;99.90;;;;;;4967144;28;88914;-34
2022/12/15 11:21:26;;;;;;;26.48;20.60;;;-0.20;99.90;;;;;;4960807;28;88278;-30
2022/12/15 11:24:15;;;;;;;26.25;21.30;;;-0.30;99.90;;;;;;4961179;28;90432;-34
2022/12/15 11:26:54;;;;;;;27.42;21.90;;;-0.20;99.90;;;;;;4961445;28;89391;-31
2022/12/15 11:29:48;;;;;;;30.77;20.52;;;-0.10;99.90;;;;;;4965011;28;89364;-34
2022/12/15 11:32:22;;;;;;;26.70;20.40;;;0.00;99.90;;;;;;4968366;28;90286;-31
2022/12/15 11:34:48;;;;;;;22.85;19.35;;;0.10;99.90;;;;;;4971213;28;90245;-31
2022/12/15 11:37:29;;;;;;;30.05;22.67;;;0.20;99.90;;;;;;4980989;28;90723;-31
2022/12/15 11:40:23;;;;;;;30.77;22.55;;;0.20;99.90;;;;;;4984603;28;90106;-30
2022/12/15 11:42:52;;;;;;;26.33;19.67;;;0.20;99.90;;;;;;4967564;28;87790;-29
2022/12/15 11:45:45;;;;;;;26.20;19.25;;;0.40;99.90;;;;;;4984329;28;90272;-32
2022/12/15 11:48:17;;;;;;;21.90;18.55;;;0.50;99.90;;;;;;4968576;28;89771;-32
2022/12/15 11:51:13;;;;;;;20.98;17.95;;;0.60;99.90;;;;;;4980568;28;88492;-34
2022/12/15 11:54:03;;;;;;;25.05;20.02;;;0.70;99.90;;;;;;4960885;28;89420;-31
2022/12/15 11:56:40;;;;;;;24.38;21.88;;;0.90;99.90;;;;;;4967089;28;90307;-31
2022/12/15 11:59:05;;;;;;;29.33;20.85;;;1.00;99.90;;;;;;4967628;28;89623;-32
2022/12/15 12:01:43;;;;;;;25.90;20.40;;;1.10;99.90;;;;;;4966059;28;89106;-31
2022/12/15 12:04:19;;;;;;;22.25;17.77;;;1.20;99.90;;;;;;4970558;28;88339;-32
2022/12/15 12:07:06;;;;;;;24.05;19.05;;;1.30;99.90;;;;;;4956411;28;90047;-33
2022/12/15 12:09:35;;;;;;;23.20;18.88;;;1.30;99.90;;;;;;4977073;28;89579;-32
2022/12/15 12:12:17;;;;;;;22.67;19.60;;;1.40;99.90;;;;;;4977246;28;89627;-34
2022/12/15 12:15:02;;;;;;;28.15;18.10;;;1.50;99.90;;;;;;4979399;28;87662;-33
2022/12/15 12:18:11;;;;;;;23.88;18.92;;;1.60;99.90;;;;;;4968822;28;90753;-33
2022/12/15 12:20:44;;;;;;;25.42;20.05;;;1.70;99.90;;;;;;4966722;28;89635;-32
2022/12/15 12:23:23;;;;;;;23.88;19.95;;;1.70;99.90;;;;;;4968480;28;90624;-31
2022/12/15 12:26:09;;;;;;;21.90;17.85;;;1.70;99.90;;;;;;4966797;28;89018;-32
2022/12/15 12:29:05;;;;;;;25.05;19.40;;;1.70;99.90;;;;;;4965460;28;90077;-33
2022/12/15 12:31:48;;;;;;;22.88;19.92;;;1.70;99.90;;;;;;4944258;28;90598;-36
2022/12/15 12:34:51;;;;;;;21.70;17.33;;;1.70;99.90;;;;;;4966761;28;90565;-32
2022/12/15 12:37:35;;;;;;;23.05;20.88;;;1.60;99.90;;;;;;4972773;28;90344;-32
2022/12/15 12:40:13;;;;;;;26.17;21.35;;;1.60;99.90;;;;;;4960340;28;90143;-33
2022/12/15 12:42:55;;;;;;;23.67;19.97;;;1.60;99.90;;;;;;4965737;28;89814;-31
2022/12/15 12:45:39;;;;;;;28.50;20.75;;;1.50;99.90;;;;;;4970727;28;90139;-31
2022/12/15 12:48:17;;;;;;;26.98;20.73;;;1.40;99.90;;;;;;4970542;28;89581;-30
2022/12/15 12:50:43;;;;;;;31.20;21.70;;;1.50;99.90;;;;;;4966847;28;89857;-33
2022/12/15 12:53:25;;;;;;;25.17;22.02;;;1.40;99.90;;;;;;4970580;28;89349;-31
2022/12/15 12:55:51;;;;;;;30.10;22.48;;;1.40;99.90;;;;;;4968624;28;89682;-35
2022/12/15 12:58:40;;;;;;;25.85;21.25;;;1.40;99.90;;;;;;4973058;28;89285;-33
2022/12/15 13:01:09;;;;;;;27.75;23.80;;;1.40;99.90;;;;;;4952307;28;89196;-33
2022/12/15 13:03:38;;;;;;;;;;;1.40;99.90;;;;;;4965391;28;91334;-31
2022/12/15 13:06:35;;;;;;;26.80;22.55;;;1.40;99.90;;;;;;4959852;28;90533;-34
2022/12/15 13:09:16;;;;;;;27.73;22.33;;;1.30;99.90;;;;;;4957882;28;88954;-31
2022/12/15 13:11:47;;;;;;;27.50;23.30;;;1.40;99.90;;;;;;4956442;28;90073;-32
2022/12/15 13:14:16;;;;;;;37.20;25.33;;;1.40;99.90;;;;;;4956977;28;90145;-34
2022/12/15 13:16:44;;;;;;;32.30;24.10;;;1.40;99.90;;;;;;4957146;28;89732;-33
2022/12/15 13:19:10;;;;;;;25.77;22.90;;;1.40;99.90;;;;;;4957588;28;88341;-32
2022/12/15 13:21:42;;;;;;;27.92;24.42;;;1.40;99.90;;;;;;4956462;28;89975;-34
2022/12/15 13:24:40;;;;;;;29.85;24.83;;;1.30;99.90;;;;;;4956415;28;89746;-32
2022/12/15 13:27:09;;;;;;;;;;;1.30;99.90;;;;;;4957480;28;92011;-31
2022/12/15 13:30:13;;;;;;;27.17;23.15;;;1.30;99.90;;;;;;4959090;28;89917;-31
2022/12/15 13:32:43;;;;;;;33.28;26.52;;;1.30;99.90;;;;;;4956239;28;90417;-31
2022/12/15 13:35:11;;;;;;;30.85;24.65;;;1.30;99.90;;;;;;4956230;28;89379;-31
2022/12/15 13:38:02;;;;;;;28.95;25.63;;;1.30;99.90;;;;;;4967556;28;89523;-32
2022/12/15 13:40:50;;;;;;;29.88;25.38;;;1.30;99.90;;;;;;4965462;28;88234;-34
2022/12/15 13:43:25;;;;;;;30.35;26.40;;;1.30;99.90;;;;;;4957912;28;89639;-32
2022/12/15 13:45:54;;;;;;;34.58;25.92;;;1.30;99.90;;;;;;4957175;28;90140;-31
2022/12/15 13:48:44;;;;;;;32.88;27.63;;;1.40;99.90;;;;;;4967990;28;88659;-33
2022/12/15 13:51:28;;;;;;;33.75;26.55;;;1.30;99.90;;;;;;4968693;28;89061;-31
2022/12/15 13:54:01;;;;;;;30.95;26.17;;;1.20;99.90;;;;;;4957594;28;90469;-31
2022/12/15 13:57:00;;;;;;;35.08;28.55;;;1.20;99.90;;;;;;4956350;28;90777;-32
2022/12/15 13:59:42;;;;;;;42.25;27.00;;;1.20;99.90;;;;;;4956728;28;89760;-32
2022/12/15 14:02:28;;;;;;;31.95;26.25;;;1.20;99.90;;;;;;4962226;28;87947;-32
2022/12/15 14:05:13;;;;;;;36.03;27.02;;;1.10;99.90;;;;;;4966146;28;90053;-36
2022/12/15 14:07:48;;;;;;;30.67;26.88;;;1.10;99.90;;;;;;4965102;28;89308;-32
2022/12/15 14:10:29;;;;;;;45.17;28.33;;;1.10;99.90;;;;;;4956435;28;90116;-31
2022/12/15 14:12:56;;;;;;;35.53;28.50;;;1.10;99.90;;;;;;4956690;28;89204;-31
2022/12/15 14:15:32;;;;;;;32.05;26.20;;;1.10;99.90;;;;;;4956285;28;90315;-31
2022/12/15 14:18:00;;;;;;;40.28;27.30;;;1.10;99.90;;;;;;4955847;28;91153;-32
2022/12/15 14:20:46;;;;;;;35.40;26.83;;;1.00;99.90;;;;;;4956259;28;89812;-31
2022/12/15 14:23:27;;;;;;;36.38;29.80;;;1.00;99.90;;;;;;4956706;28;88381;-32
2022/12/15 14:26:02;;;;;;;32.30;27.73;;;1.00;99.90;;;;;;4956612;28;89212;-31
2022/12/15 14:28:30;;;;;;;39.40;28.90;;;1.00;99.90;;;;;;4954973;28;90560;-32
2022/12/15 14:31:01;;;;;;;36.75;29.83;;;1.00;99.90;;;;;;4956960;28;88618;-33
2022/12/15 14:33:27;;;;;;;36.85;28.63;;;1.00;99.90;;;;;;4955225;28;89384;-32
2022/12/15 14:35:56;;;;;;;37.88;30.75;;;1.00;99.90;;;;;;4955793;28;90593;-33
2022/12/15 14:38:30;;;;;;;33.28;28.63;;;1.00;99.90;;;;;;4956478;28;89787;-32
2022/12/15 14:40:59;;;;;;;33.83;28.23;;;0.90;99.90;;;;;;4956057;28;90585;-32
2022/12/15 14:43:31;;;;;;;31.33;27.23;;;0.80;99.90;;;;;;4954918;28;90388;-34
2022/12/15 14:46:22;;;;;;;32.03;27.73;;;0.80;99.90;;;;;;4956838;28;90439;-34
2022/12/15 14:48:56;;;;;;;30.65;27.52;;;0.70;99.90;;;;;;4950732;28;88711;-33
2022/12/15 14:51:24;;;;;;;44.92;32.15;;;0.70;99.90;;;;;;4955329;28;89632;-32
2022/12/15 14:53:51;;;;;;;33.17;27.48;;;0.60;99.90;;;;;;4955496;28;89422;-32
2022/12/15 14:56:17;;;;;;;40.42;29.77;;;0.60;99.90;;;;;;4955894;28;89739;-31
2022/12/15 14:58:45;;;;;;;34.28;29.00;;;0.60;99.90;;;;;;4955437;28;89492;-31
2022/12/15 15:01:32;;;;;;;36.95;29.35;;;0.50;99.90;;;;;;4955873;28;89237;-32
2022/12/15 15:04:03;;;;;;;44.70;31.40;;;0.50;99.90;;;;;;4959149;28;88282;-33
2022/12/15 15:06:33;;;;;;;41.42;27.90;;;0.50;99.90;;;;;;4957484;28;91360;-32
2022/12/15 15:09:13;;;;;;;34.40;29.98;;;0.40;99.90;;;;;;4958437;28;90227;-33
2022/12/15 15:11:40;;;;;;;36.55;30.55;;;0.40;99.90;;;;;;4956987;28;91461;-32
2022/12/15 15:14:31;;;;;;;38.58;31.88;;;0.40;99.90;;;;;;4959520;28;89347;-32
2022/12/15 15:17:04;;;;;;;40.60;31.23;;;0.40;99.90;;;;;;4959645;28;90119;-34
2022/12/15 15:19:31;;;;;;;31.63;28.23;;;0.40;99.90;;;;;;4959513;28;89523;-32